Londonderry, NH

10:03 AM EDT on June 02, 2015 (GMT -0400)
Beaver Lake, North Shore | | Change Station
CLOSE
Current Station
Personal Weather Station
Location: Derry, NH
Elevation: 325 ft
Nearby Weather Stations

Elev 325 ft 42.91 °N, 71.30 °W | Updated 8 seconds ago

Rain
Rain
46.0 °F
Feels Like 46 °F
N
1.3
Wind Variable Wind from North
Gusts 2.5 mph

Today
High -- | Low -- °F
--% Chance of Precip.
Yesterday
High -- | Low -- °F
Precip. -- in
5:08 AM 8:17 PM
Full, 100% visible
Pressure 30.24 in
Visibility 10.0 miles
Clouds Overcast 1300 ft
Windchill 46 °F
Dew Point 46 °F
Humidity 99%
Rainfall 1.32 in
Snow Depth Not available.
UV 2.0 out of 12
Pollen .80 out of 12
Air Quality Not available.
Flu Activity Sporadic
METAR KMHT 021353Z 03007KT 10SM -RA OVC013 09/07 A3019 RMK AO2 SLP239 P0001 T00890067

More Conditions Fewer Conditions

Pressure 30.24 in
Visibility 10.0 miles
Clouds Overcast 1300 ft
Windchill 46 °F
Dew Point 46 °F
Humidity 99%
Rainfall 1.32 in
Snow Depth Not available.
UV 2.0 out of 12
Pollen .80 out of 12
Air Quality Not available.
Flu Activity Sporadic
METAR KMHT 021353Z 03007KT 10SM -RA OVC013 09/07 A3019 RMK AO2 SLP239 P0001 T00890067

More Conditions Fewer Conditions

10-Day Weather Forecast

Almanac

Astronomy

Jun. 02, 2015 Rise Set
Actual Time
Civil Twilight
Nautical Twilight
Astronomical Twilight
Moon
Length of Visible Light
Length of Day
Tomorrow will be .
, % of the Moon is Illuminated

Today's Extremes

State Highs State Lows

Community

WunderPhotos

Upload Photos

1,825,915 photos uploaded!

WunderBlogs® & News

Nearby

Air Quality

  Air Quality AQ Index Pollutant
Not available.

Snow Depth

Station Depth Elevation

Earthquake Activity

City Distance Mag. Time & Date
Minimum magnitude displayed is 2.5.

Coastal Water Temperatures

Place Temperature

Stations

Nearby Weather Stations

Station Location Temp. Windchill Dew Point Humidity Wind Precip. Elev Updated Type